Time;durP1;ratioP1;P1;durP2;ratioP2;P2;SDS_P1;SDS_P2;PMS_P1;PMS_P2;Temp;Humidity;BMP_temperature;BMP_pressure;BME280_temperature;BME280_humidity;BME280_pressure;Samples;Min_cycle;Max_cycle;Signal;HPM_P1;HPM_P2
2024/03/06 00:04:20;;;;;;;0.13;0.10;;;1.90;99.90;;;;;;20811473;28;20249;-41
2024/03/06 00:14:23;;;;;;;0.10;0.00;;;2.00;99.90;;;;;;20852269;28;20059;-41
2024/03/06 00:24:26;;;;;;;0.30;0.10;;;2.20;99.90;;;;;;20863088;28;20071;-41
2024/03/06 00:34:31;;;;;;;1.50;0.20;;;2.70;99.90;;;;;;20883579;28;20170;-40
2024/03/06 00:44:33;;;;;;;0.30;0.20;;;2.40;99.90;;;;;;20859879;28;20139;-45
2024/03/06 00:54:36;;;;;;;1.20;0.90;;;2.10;99.90;;;;;;20877402;28;20142;-42
2024/03/06 01:04:37;;;;;;;3.97;1.88;;;1.90;99.90;;;;;;20880580;28;20185;-42
2024/03/06 01:14:39;;;;;;;2.85;1.75;;;1.80;99.90;;;;;;20877694;28;20071;-40
2024/03/06 01:24:41;;;;;;;3.78;2.55;;;2.00;99.90;;;;;;20878120;28;20170;-40
2024/03/06 01:34:46;;;;;;;8.60;4.38;;;2.20;99.90;;;;;;20614012;28;21131;-42
2024/03/06 01:44:50;;;;;;;7.45;3.65;;;2.60;99.90;;;;;;20614229;28;20117;-41
2024/03/06 01:54:53;;;;;;;9.48;4.95;;;2.70;99.90;;;;;;20593849;28;20131;-38
2024/03/06 02:04:57;;;;;;;11.25;6.60;;;2.70;99.90;;;;;;20637416;28;20190;-42
2024/03/06 02:14:59;;;;;;;10.07;5.38;;;2.70;99.90;;;;;;20772783;28;20174;-41
2024/03/06 02:25:01;;;;;;;9.77;5.70;;;2.60;99.90;;;;;;20777215;28;20278;-40
2024/03/06 02:35:03;;;;;;;9.43;5.10;;;2.60;99.90;;;;;;20772758;28;21972;-41
2024/03/06 02:45:07;;;;;;;7.47;4.65;;;2.80;99.90;;;;;;20840429;28;20082;-42
2024/03/06 02:55:09;;;;;;;8.10;4.70;;;2.70;99.90;;;;;;20870770;28;20071;-40
2024/03/06 03:05:11;;;;;;;8.10;4.43;;;2.90;99.90;;;;;;20847488;28;20180;-40
2024/03/06 03:15:13;;;;;;;8.85;4.90;;;2.90;99.90;;;;;;20870673;28;21761;-43
2024/03/06 03:25:15;;;;;;;11.25;5.18;;;2.90;99.90;;;;;;20853368;28;20071;-43
2024/03/06 03:35:24;;;;;;;9.57;4.82;;;2.90;99.90;;;;;;20851753;28;20208;-41
2024/03/06 03:45:26;;;;;;;10.32;5.05;;;2.90;99.90;;;;;;20867494;28;20176;-41
2024/03/06 03:55:28;;;;;;;11.90;5.72;;;3.00;99.90;;;;;;20853166;28;20163;-41
2024/03/06 04:05:31;;;;;;;8.63;5.25;;;2.80;99.90;;;;;;20846576;28;20394;-41
2024/03/06 04:15:33;;;;;;;13.30;6.55;;;2.50;99.90;;;;;;20881121;28;21025;-42
2024/03/06 04:25:35;;;;;;;13.80;7.13;;;2.30;99.90;;;;;;20883185;28;20206;-41
2024/03/06 04:35:37;;;;;;;10.77;5.90;;;2.20;99.90;;;;;;20880870;28;20993;-40
2024/03/06 04:45:39;;;;;;;8.73;5.40;;;2.20;99.90;;;;;;20865398;28;20973;-41
2024/03/06 04:55:41;;;;;;;6.50;4.65;;;2.20;99.90;;;;;;20882955;28;20126;-40
2024/03/06 05:05:43;;;;;;;11.30;3.85;;;2.00;99.90;;;;;;20875035;28;20180;-40
2024/03/06 05:15:44;;;;;;;8.25;3.53;;;1.80;99.90;;;;;;20878792;28;20154;-40
2024/03/06 05:25:46;;;;;;;5.13;3.08;;;1.60;99.90;;;;;;20872208;28;20193;-40
2024/03/06 05:35:48;;;;;;;5.43;2.75;;;1.70;99.90;;;;;;20876031;28;20117;-40
2024/03/06 05:45:50;;;;;;;4.03;2.30;;;1.90;99.90;;;;;;20694613;28;20183;-41
2024/03/06 05:55:52;;;;;;;4.82;1.90;;;1.90;99.90;;;;;;20531234;28;21348;-40
2024/03/06 06:05:55;;;;;;;2.58;1.45;;;2.30;99.90;;;;;;20532190;28;20171;-40
2024/03/06 06:16:02;;;;;;;3.75;1.38;;;2.30;99.90;;;;;;20553951;28;20158;-40
2024/03/06 06:26:04;;;;;;;2.92;1.73;;;2.10;99.90;;;;;;20718332;28;20178;-40
2024/03/06 06:36:09;;;;;;;4.63;1.70;;;2.00;99.90;;;;;;20871630;28;21639;-40
2024/03/06 06:46:11;;;;;;;4.60;2.20;;;1.90;99.90;;;;;;20871650;28;20160;-42
2024/03/06 06:56:17;;;;;;;6.57;2.83;;;2.20;99.90;;;;;;20852497;28;21115;-40
2024/03/06 07:06:19;;;;;;;2.85;1.85;;;2.30;99.90;;;;;;20867895;28;20115;-40
2024/03/06 07:16:20;;;;;;;3.25;1.55;;;2.40;99.90;;;;;;20867406;28;20134;-40
2024/03/06 07:26:23;;;;;;;3.15;1.40;;;2.60;99.90;;;;;;20843732;28;20130;-42
2024/03/06 07:36:25;;;;;;;275.85;10.85;;;2.80;99.90;;;;;;20883111;28;20067;-40
2024/03/06 07:46:27;;;;;;;1.88;1.42;;;3.00;99.90;;;;;;20879638;28;20130;-40
2024/03/06 07:56:29;;;;;;;1.38;1.08;;;2.60;99.90;;;;;;20882330;28;20071;-41
2024/03/06 08:06:37;;;;;;;1.02;0.40;;;2.00;99.90;;;;;;20873087;28;20060;-42
2024/03/06 08:16:39;;;;;;;0.50;0.30;;;1.80;99.90;;;;;;20880913;28;20064;-43
2024/03/06 08:26:41;;;;;;;0.10;0.08;;;1.80;99.90;;;;;;20876102;28;20063;-41
2024/03/06 08:36:42;;;;;;;1.05;0.40;;;2.80;99.90;;;;;;20880931;28;20067;-41
2024/03/06 08:46:44;;;;;;;0.65;0.45;;;3.70;99.90;;;;;;20876724;28;20201;-40
2024/03/06 08:56:46;;;;;;;0.60;0.10;;;4.30;99.90;;;;;;20874678;28;20144;-41
2024/03/06 09:06:51;;;;;;;0.10;0.10;;;4.30;99.90;;;;;;20873555;28;21861;-44
2024/03/06 09:16:54;;;;;;;0.30;0.10;;;4.50;99.90;;;;;;20877694;28;20853;-43
2024/03/06 09:26:56;;;;;;;0.30;0.20;;;4.00;99.90;;;;;;20873843;28;20085;-41
2024/03/06 09:36:57;;;;;;;1.80;0.35;;;4.00;99.90;;;;;;20854511;28;20063;-42
2024/03/06 09:47:06;;;;;;;2.97;0.47;;;3.70;99.90;;;;;;20871130;28;20087;-40
2024/03/06 09:57:08;;;;;;;1.85;0.52;;;3.40;99.90;;;;;;20866242;28;20085;-40
2024/03/06 10:07:10;;;;;;;1.45;0.68;;;3.80;99.90;;;;;;20870578;28;20122;-40
2024/03/06 10:17:22;;;;;;;2.03;0.70;;;4.10;99.90;;;;;;20866589;28;21280;-40
2024/03/06 10:27:24;;;;;;;2.72;0.68;;;4.40;99.90;;;;;;20867820;28;20126;-42
2024/03/06 10:37:28;;;;;;;2.40;0.50;;;4.60;99.90;;;;;;20869317;28;20150;-40
2024/03/06 10:47:40;;;;;;;1.80;0.60;;;5.00;99.90;;;;;;20863467;28;20178;-41
2024/03/06 10:57:43;;;;;;;2.10;0.60;;;5.90;99.90;;;;;;20850925;28;20191;-40
2024/03/06 11:07:45;;;;;;;6.07;0.82;;;5.30;99.90;;;;;;20869249;28;20177;-41
2024/03/06 11:17:48;;;;;;;1.67;0.57;;;4.80;99.90;;;;;;20862638;28;20166;-40
2024/03/06 11:28:06;;;;;;;3.10;0.50;;;5.30;99.90;;;;;;20865175;28;20122;-41
2024/03/06 11:38:09;;;;;;;3.00;0.60;;;6.30;99.90;;;;;;20844742;28;20155;-44
2024/03/06 11:48:17;;;;;;;2.70;0.47;;;7.30;99.90;;;;;;20847695;28;21216;-41
2024/03/06 11:58:19;;;;;;;2.20;0.77;;;7.50;99.90;;;;;;20862757;28;20237;-40
2024/03/06 12:08:21;;;;;;;6.30;1.88;;;6.40;99.90;;;;;;20866135;28;20131;-40
2024/03/06 12:18:24;;;;;;;1.63;0.50;;;5.80;99.90;;;;;;20873150;28;20700;-40
2024/03/06 12:28:29;;;;;;;3.88;1.25;;;6.10;99.90;;;;;;20853571;28;20248;-43
2024/03/06 12:38:33;;;;;;;4.35;0.40;;;7.50;99.90;;;;;;20874396;28;20857;-41
2024/03/06 12:48:35;;;;;;;1.58;0.40;;;8.00;99.90;;;;;;20873373;28;20166;-44
2024/03/06 12:58:36;;;;;;;2.35;0.80;;;8.60;99.90;;;;;;20875714;28;20161;-40
2024/03/06 13:08:38;;;;;;;4.65;0.38;;;7.60;99.90;;;;;;20854893;28;20032;-39
2024/03/06 13:18:40;;;;;;;1.63;1.52;;;7.40;99.90;;;;;;20875301;28;20120;-40
2024/03/06 13:28:42;;;;;;;1.92;0.30;;;6.70;99.90;;;;;;20853944;28;20174;-39
2024/03/06 13:38:44;;;;;;;1.00;0.30;;;5.20;99.90;;;;;;20873013;28;20116;-40
2024/03/06 13:48:46;;;;;;;0.77;0.30;;;4.70;99.90;;;;;;20764967;28;21157;-42
2024/03/06 13:58:48;;;;;;;0.55;0.10;;;5.30;99.90;;;;;;20764777;28;20063;-40
2024/03/06 14:08:50;;;;;;;0.70;0.20;;;6.20;99.90;;;;;;20761535;28;20094;-40
2024/03/06 14:18:51;;;;;;;0.85;0.20;;;6.90;99.90;;;;;;20761036;28;20493;-40
2024/03/06 14:28:53;;;;;;;2.22;0.30;;;6.80;99.90;;;;;;20763033;28;20170;-40
2024/03/06 14:38:55;;;;;;;1.63;0.20;;;5.40;99.90;;;;;;20765081;28;21221;-40
2024/03/06 14:48:56;;;;;;;0.95;0.20;;;3.90;99.90;;;;;;20868657;28;20066;-40
2024/03/06 14:59:00;;;;;;;2.30;0.20;;;3.90;99.90;;;;;;20847049;28;21639;-40
2024/03/06 15:09:01;;;;;;;2.10;0.10;;;4.50;99.90;;;;;;20866858;28;20115;-41
2024/03/06 15:19:04;;;;;;;1.25;0.40;;;4.90;99.90;;;;;;20847465;28;20126;-40
2024/03/06 15:29:06;;;;;;;1.15;0.30;;;4.80;99.90;;;;;;20867131;28;20758;-41
2024/03/06 15:39:08;;;;;;;0.90;0.20;;;4.60;99.90;;;;;;20864999;28;20071;-41
2024/03/06 15:49:24;;;;;;;2.70;0.30;;;4.80;99.90;;;;;;20864442;28;20064;-40
2024/03/06 15:59:28;;;;;;;3.10;0.45;;;4.80;99.90;;;;;;20881391;28;20110;-40
2024/03/06 16:09:29;;;;;;;1.25;0.22;;;4.40;99.90;;;;;;20861152;28;20110;-41
2024/03/06 16:19:35;;;;;;;2.38;0.20;;;3.40;99.90;;;;;;20877070;28;20126;-42
2024/03/06 16:29:36;;;;;;;0.90;0.20;;;2.80;99.90;;;;;;20881011;28;20059;-41
2024/03/06 16:39:38;;;;;;;2.85;0.32;;;2.70;99.90;;;;;;20877832;28;20079;-42
2024/03/06 16:49:43;;;;;;;1.27;0.20;;;2.50;99.90;;;;;;20881562;28;20741;-42
2024/03/06 16:59:45;;;;;;;0.40;0.20;;;2.40;99.90;;;;;;20882244;28;20878;-43
2024/03/06 17:09:46;;;;;;;2.03;0.60;;;2.50;99.90;;;;;;20877570;28;20098;-44
2024/03/06 17:19:48;;;;;;;0.95;0.50;;;2.60;99.90;;;;;;20877645;28;20105;-42
2024/03/06 17:29:50;;;;;;;0.52;0.30;;;2.70;99.90;;;;;;20876508;28;21132;-44
2024/03/06 17:39:51;;;;;;;1.08;0.30;;;2.60;99.90;;;;;;20861646;28;20079;-42
2024/03/06 17:49:53;;;;;;;0.47;0.28;;;2.30;99.90;;;;;;20855688;28;20122;-44
2024/03/06 17:59:55;;;;;;;0.40;0.30;;;2.10;99.90;;;;;;20875908;28;20166;-43
2024/03/06 18:09:56;;;;;;;0.60;0.30;;;2.10;99.90;;;;;;20877369;28;21824;-42
2024/03/06 18:20:03;;;;;;;0.55;0.20;;;2.20;99.90;;;;;;20869333;28;20111;-43
2024/03/06 18:30:06;;;;;;;1.23;0.28;;;2.20;99.90;;;;;;20869018;28;20403;-42
2024/03/06 18:40:10;;;;;;;0.38;0.30;;;2.30;99.90;;;;;;20873211;28;20166;-43
2024/03/06 18:50:12;;;;;;;0.73;0.30;;;2.40;99.90;;;;;;20875882;28;20724;-43
2024/03/06 19:00:16;;;;;;;0.90;0.50;;;2.40;99.90;;;;;;20876848;28;20142;-43
2024/03/06 19:10:19;;;;;;;1.77;0.60;;;2.40;99.90;;;;;;20872119;28;20769;-42
2024/03/06 19:20:23;;;;;;;1.08;0.60;;;2.40;99.90;;;;;;20873864;28;20140;-43
2024/03/06 19:30:25;;;;;;;0.85;0.70;;;2.40;99.90;;;;;;20870876;28;20100;-41
2024/03/06 19:40:28;;;;;;;1.10;0.70;;;2.40;99.90;;;;;;20869729;28;20084;-43
2024/03/06 19:50:29;;;;;;;1.90;0.60;;;2.40;99.90;;;;;;20866532;28;20114;-41
2024/03/06 20:00:31;;;;;;;2.50;0.80;;;2.40;99.90;;;;;;20867683;28;20123;-43
2024/03/06 20:10:33;;;;;;;2.17;0.90;;;2.40;99.90;;;;;;20868585;28;20136;-42
2024/03/06 20:20:35;;;;;;;1.05;0.80;;;2.50;99.90;;;;;;20868404;28;20469;-44
2024/03/06 20:30:47;;;;;;;1.73;0.90;;;2.50;99.90;;;;;;20872086;28;20167;-43
2024/03/06 20:40:50;;;;;;;0.70;0.40;;;2.40;99.90;;;;;;20878477;28;21241;-43
2024/03/06 20:50:52;;;;;;;0.63;0.38;;;2.30;99.90;;;;;;20884857;28;20063;-42
2024/03/06 21:00:55;;;;;;;0.60;0.40;;;2.10;99.90;;;;;;20880660;28;20154;-42
2024/03/06 21:10:58;;;;;;;0.88;0.40;;;1.80;99.90;;;;;;20863154;28;20181;-43
2024/03/06 21:21:01;;;;;;;0.52;0.30;;;1.70;99.90;;;;;;20881544;28;21491;-42
2024/03/06 21:31:03;;;;;;;0.45;0.20;;;1.60;99.90;;;;;;20881311;28;20063;-42
2024/03/06 21:41:05;;;;;;;1.23;0.30;;;1.60;99.90;;;;;;20871403;28;20177;-42
2024/03/06 21:51:08;;;;;;;0.10;0.10;;;1.60;99.90;;;;;;20875671;28;21437;-44
2024/03/06 22:01:11;;;;;;;0.35;0.20;;;1.70;99.90;;;;;;20879416;28;20174;-43
2024/03/06 22:11:12;;;;;;;0.10;0.10;;;1.70;99.90;;;;;;20876013;28;20866;-43
2024/03/06 22:21:14;;;;;;;1.38;0.10;;;1.90;99.90;;;;;;20872508;28;20132;-43
2024/03/06 22:31:16;;;;;;;0.10;0.10;;;1.90;99.90;;;;;;20868019;28;20961;-46
2024/03/06 22:41:22;;;;;;;0.10;0.00;;;1.90;99.90;;;;;;20872554;28;20170;-43
2024/03/06 22:51:24;;;;;;;0.30;0.00;;;1.90;99.90;;;;;;20874644;28;20239;-42
2024/03/06 23:01:25;;;;;;;0.38;0.10;;;1.90;99.90;;;;;;20872794;28;20122;-43
2024/03/06 23:11:28;;;;;;;0.10;0.10;;;1.90;99.90;;;;;;20865664;28;20126;-44
2024/03/06 23:21:33;;;;;;;0.38;0.20;;;1.90;99.90;;;;;;20846219;28;20144;-43
2024/03/06 23:31:36;;;;;;;0.35;0.22;;;1.90;99.90;;;;;;20864981;28;20146;-43
2024/03/06 23:41:37;;;;;;;0.20;0.10;;;1.80;99.90;;;;;;20870952;28;20922;-42
2024/03/06 23:51:44;;;;;;;2.40;2.20;;;1.80;99.90;;;;;;20865837;28;20467;-42
